Portada
METAR-TAF:

METAR-TAF

Aeropuertos :

Schleswig-Jagel, Alemania

latitud: 54-28N, longitud: 009-31E, altitud: 22 m

Observación

El informe se hizo hace 51 minutos, a las 01:20 UTC
Viento 8 kt del sur-sureste
Temperatura 15°C
Humedad 82%
Presión 996 hPa
Visibilidad 10 km o más

METAR: ETNS 240120Z AUTO 15008KT 9999 // ////// 15/12 Q0996 ///

Hora: 04:11 (02:11 UTC)


TAF: falta

Observaciones y pronósticos meteorológicos de más de 4000 aeropuertos (mensajes METAR y TAF).

Los puntos amarillos y rojos representan las estaciones disponibles.

Ponga el ratón en el punto deseado para ver el nombre de la estación.

Haga clic para ver las observaciones y los pronósticos meteorológicos.

Para cambiar el mapa : haga clic en los botones verdes con una cruz de color negro para hacer un zoom, en el botón verde con un guión para alejar o en las flechas verdes para mapas adyacentes.


METAR-TAF: